createdAt,value
2022-10-14T00:01:21.821Z,86.40
2022-10-14T00:03:49.725Z,86.40
2022-10-14T00:06:22.611Z,86.50
2022-10-14T00:08:52.324Z,86.50
2022-10-14T00:11:22.012Z,86.40
2022-10-14T00:13:49.737Z,86.40
2022-10-14T00:16:21.261Z,86.40
2022-10-14T00:18:48.724Z,86.50
2022-10-14T00:21:16.336Z,86.50
2022-10-14T00:23:43.766Z,86.50
2022-10-14T00:26:23.638Z,86.50
2022-10-14T00:28:51.711Z,86.50
2022-10-14T00:31:21.079Z,86.50
2022-10-14T00:33:48.433Z,86.50
2022-10-14T00:36:18.682Z,86.50
2022-10-14T00:38:46.468Z,86.70
2022-10-14T00:41:18.012Z,86.60
2022-10-14T00:43:59.248Z,86.60
2022-10-14T00:46:33.267Z,86.60
2022-10-14T00:49:14.869Z,86.70
2022-10-14T00:51:44.993Z,86.60
2022-10-14T00:54:15.102Z,86.70
2022-10-14T00:56:44.306Z,86.70
2022-10-14T00:59:12.538Z,86.60
2022-10-14T01:01:39.437Z,86.80
2022-10-14T01:04:06.654Z,86.70
2022-10-14T01:06:41.054Z,86.80
2022-10-14T01:09:28.761Z,87.30
2022-10-14T01:12:33.812Z,86.80
2022-10-14T01:15:15.682Z,86.90
2022-10-14T01:17:48.563Z,86.90
2022-10-14T01:20:48.104Z,86.90
2022-10-14T01:23:38.296Z,86.90
2022-10-14T01:26:28.929Z,86.90
2022-10-14T01:29:26.894Z,87.00
2022-10-14T01:32:06.477Z,87.20
2022-10-14T01:34:42.769Z,87.10
2022-10-14T01:37:16.581Z,87.10
2022-10-14T01:39:54.651Z,87.10
2022-10-14T01:42:28.263Z,87.10
2022-10-14T01:45:03.848Z,87.10
2022-10-14T01:47:33.042Z,87.20
2022-10-14T01:50:09.370Z,87.20
2022-10-14T01:52:41.455Z,87.20
2022-10-14T01:55:15.107Z,87.20
2022-10-14T01:57:44.538Z,87.20
2022-10-14T02:00:12.464Z,87.40
2022-10-14T02:02:43.183Z,87.40
2022-10-14T02:05:32.445Z,87.40
2022-10-14T02:08:27.325Z,87.40
2022-10-14T02:11:07.192Z,87.50
2022-10-14T02:13:51.451Z,87.50
2022-10-14T02:16:56.932Z,87.50
2022-10-14T02:19:24.709Z,87.50
2022-10-14T02:22:10.211Z,87.70
2022-10-14T02:24:46.293Z,87.70
2022-10-14T02:27:18.699Z,87.70
2022-10-14T02:29:47.748Z,87.70
2022-10-14T02:32:19.365Z,87.60
2022-10-14T02:34:52.219Z,87.70
2022-10-14T02:37:22.075Z,87.60
2022-10-14T02:40:04.996Z,87.70
2022-10-14T02:42:32.385Z,87.70
2022-10-14T02:45:00.558Z,87.80
2022-10-14T02:47:28.734Z,87.80
2022-10-14T02:49:55.777Z,87.80
2022-10-14T02:52:24.600Z,87.80
2022-10-14T02:54:53.605Z,87.70
2022-10-14T02:57:20.776Z,87.70
2022-10-14T02:59:48.850Z,87.70
2022-10-14T03:02:15.818Z,87.70
2022-10-14T03:04:42.800Z,87.70
2022-10-14T03:07:12.230Z,87.70
2022-10-14T03:09:44.641Z,87.80
2022-10-14T03:12:11.548Z,87.70
2022-10-14T03:14:41.820Z,87.70
2022-10-14T03:17:15.053Z,87.90
2022-10-14T03:19:43.388Z,87.90
2022-10-14T03:22:12.506Z,87.90
2022-10-14T03:24:41.146Z,88.00
2022-10-14T03:27:43.720Z,88.00
2022-10-14T03:30:13.835Z,88.00
2022-10-14T03:32:55.512Z,88.00
2022-10-14T03:35:38.704Z,88.10
2022-10-14T03:38:10.104Z,88.10
2022-10-14T03:40:37.669Z,88.10
2022-10-14T03:43:08.578Z,88.10
2022-10-14T03:45:48.106Z,88.20
2022-10-14T03:48:18.310Z,88.20
2022-10-14T03:50:47.368Z,88.20
2022-10-14T03:53:14.682Z,88.20
2022-10-14T03:55:43.366Z,88.10
2022-10-14T03:58:12.479Z,88.30
2022-10-14T04:00:46.845Z,88.30
2022-10-14T04:03:25.981Z,88.30
2022-10-14T04:05:55.561Z,88.30
2022-10-14T04:08:25.263Z,88.30
2022-10-14T04:10:58.763Z,88.40
2022-10-14T04:13:28.979Z,88.40
2022-10-14T04:15:56.698Z,88.40
2022-10-14T04:18:29.368Z,88.50
2022-10-14T04:21:07.069Z,88.50
2022-10-14T04:23:35.369Z,88.50
2022-10-14T04:26:10.520Z,88.60
2022-10-14T04:28:39.747Z,88.50
2022-10-14T04:31:13.202Z,88.40
2022-10-14T04:33:55.608Z,88.40
2022-10-14T04:36:29.696Z,88.50
2022-10-14T04:38:58.829Z,88.50
2022-10-14T04:41:26.086Z,88.50
2022-10-14T04:43:55.339Z,88.50
2022-10-14T04:46:31.599Z,88.60
2022-10-14T04:48:59.309Z,88.50
2022-10-14T04:51:31.733Z,88.60
2022-10-14T04:54:16.948Z,88.70
2022-10-14T04:56:50.932Z,88.80
2022-10-14T04:59:17.882Z,88.90
2022-10-14T05:02:05.025Z,88.90
2022-10-14T05:04:42.136Z,88.90
2022-10-14T05:07:09.589Z,88.90
2022-10-14T05:09:37.718Z,89.10
2022-10-14T05:12:11.962Z,89.10
2022-10-14T05:14:46.718Z,89.00
2022-10-14T05:17:20.205Z,88.90
2022-10-14T05:19:47.761Z,88.90
2022-10-14T05:22:16.059Z,88.90
2022-10-14T05:24:46.008Z,88.90
2022-10-14T05:27:13.733Z,88.90
2022-10-14T05:29:41.366Z,88.90
2022-10-14T05:32:08.519Z,88.90
2022-10-14T05:34:42.439Z,88.90
2022-10-14T05:37:13.761Z,89.10
2022-10-14T05:39:52.427Z,89.00
2022-10-14T05:42:23.298Z,89.10
2022-10-14T05:44:53.150Z,89.10
2022-10-14T05:47:20.251Z,89.10
2022-10-14T05:49:51.050Z,89.10
2022-10-14T05:52:18.189Z,89.20
2022-10-14T05:54:45.478Z,89.20
2022-10-14T05:57:16.355Z,89.30
2022-10-14T05:59:43.213Z,89.30
2022-10-14T06:02:10.438Z,89.30
2022-10-14T06:04:40.972Z,89.30
2022-10-14T06:07:12.405Z,89.30
2022-10-14T06:09:39.546Z,89.50
2022-10-14T06:12:09.678Z,89.40
2022-10-14T06:14:39.844Z,89.50
2022-10-14T06:17:07.495Z,89.50
2022-10-14T06:19:34.253Z,89.50
2022-10-14T06:22:01.296Z,89.50
2022-10-14T06:24:28.278Z,89.60
2022-10-14T06:26:55.196Z,89.60
2022-10-14T06:29:26.154Z,89.60
2022-10-14T06:31:52.917Z,89.60
2022-10-14T06:34:22.986Z,89.40
2022-10-14T06:36:49.830Z,89.50
2022-10-14T06:39:19.179Z,89.50
2022-10-14T06:41:46.138Z,89.50
2022-10-14T06:44:19.697Z,89.50
2022-10-14T06:46:46.575Z,89.40
2022-10-14T06:49:14.099Z,89.30
2022-10-14T06:51:41.175Z,89.40
2022-10-14T06:54:08.184Z,89.50
2022-10-14T06:56:35.473Z,89.60
2022-10-14T06:59:02.183Z,89.50
2022-10-14T07:01:29.442Z,89.50
2022-10-14T07:03:56.890Z,89.50
2022-10-14T07:06:23.936Z,89.50
2022-10-14T07:08:50.908Z,89.40
2022-10-14T07:11:18.405Z,89.60
2022-10-14T07:13:46.012Z,89.50
2022-10-14T07:16:13.049Z,89.60
2022-10-14T07:18:39.961Z,89.60
2022-10-14T07:21:07.714Z,89.60
2022-10-14T07:23:34.594Z,89.50
2022-10-14T07:26:01.833Z,89.50
2022-10-14T07:28:28.831Z,89.40
2022-10-14T07:31:07.863Z,89.40
2022-10-14T07:36:07.675Z,89.50
2022-10-14T07:38:35.512Z,89.50
2022-10-14T07:41:24.220Z,89.50
2022-10-14T07:43:57.815Z,89.50
2022-10-14T07:46:44.073Z,89.70
2022-10-14T07:49:16.977Z,89.80
2022-10-14T07:51:45.214Z,89.80
2022-10-14T07:54:22.116Z,89.80
2022-10-14T07:56:49.409Z,89.80
2022-10-14T07:59:17.568Z,89.80
2022-10-14T08:01:50.450Z,89.80
2022-10-14T08:04:17.736Z,89.80
2022-10-14T08:06:47.050Z,89.90
2022-10-14T08:09:16.691Z,89.90
2022-10-14T08:11:44.530Z,89.90
2022-10-14T08:14:11.505Z,90.30
2022-10-14T08:16:41.862Z,89.80
2022-10-14T08:19:14.425Z,89.80
2022-10-14T08:21:43.328Z,89.80
2022-10-14T08:24:10.649Z,90.00
2022-10-14T08:26:39.996Z,89.90
2022-10-14T08:29:11.102Z,90.00
2022-10-14T08:31:38.813Z,90.00
2022-10-14T08:34:08.580Z,90.00
2022-10-14T08:36:35.714Z,90.00
2022-10-14T08:39:04.617Z,90.00
2022-10-14T08:41:55.261Z,90.00
2022-10-14T08:44:47.693Z,90.00
2022-10-14T08:47:17.071Z,90.10
2022-10-14T08:50:02.304Z,90.00
2022-10-14T08:52:43.028Z,90.10
2022-10-14T08:55:48.402Z,90.10
2022-10-14T09:00:53.461Z,90.10
2022-10-14T09:03:32.962Z,90.10
2022-10-14T09:06:11.146Z,90.10
2022-10-14T09:08:42.722Z,90.10
2022-10-14T09:11:19.336Z,90.20
2022-10-14T09:13:50.724Z,90.20
2022-10-14T09:16:20.680Z,90.10
2022-10-14T09:18:56.627Z,90.20
2022-10-14T09:21:51.676Z,90.10
2022-10-14T09:24:32.630Z,90.10
2022-10-14T09:27:21.996Z,90.20
2022-10-14T09:29:54.086Z,90.10
2022-10-14T09:32:40.601Z,90.10
2022-10-14T09:35:25.908Z,90.10
2022-10-14T09:37:53.691Z,90.00
2022-10-14T09:40:39.459Z,90.10
2022-10-14T09:43:09.200Z,90.10
2022-10-14T09:45:47.163Z,90.10
2022-10-14T09:48:32.792Z,90.10
2022-10-14T09:51:08.781Z,90.20
2022-10-14T09:53:48.931Z,90.20
2022-10-14T09:56:18.058Z,90.20
2022-10-14T09:58:55.097Z,90.30
2022-10-14T10:01:24.931Z,90.30
2022-10-14T10:03:53.490Z,90.30
2022-10-14T10:06:26.452Z,90.30
2022-10-14T10:08:53.399Z,90.30
2022-10-14T10:11:37.816Z,90.30
2022-10-14T10:14:32.903Z,90.20
2022-10-14T10:17:09.639Z,90.30
2022-10-14T10:19:39.537Z,90.30
2022-10-14T10:24:48.223Z,90.30
2022-10-14T10:27:37.863Z,90.30
2022-10-14T10:30:38.942Z,90.30
2022-10-14T10:33:29.914Z,90.30
2022-10-14T10:36:05.514Z,90.20
2022-10-14T10:38:35.273Z,90.20
2022-10-14T10:41:26.735Z,90.20
2022-10-14T10:44:02.693Z,90.10
2022-10-14T10:46:51.518Z,90.20
2022-10-14T10:49:40.988Z,90.20
2022-10-14T10:52:34.087Z,90.20
2022-10-14T10:58:42.315Z,90.20
2022-10-14T11:01:41.230Z,90.20
2022-10-14T11:04:16.974Z,90.20
2022-10-14T11:07:32.735Z,90.20
2022-10-14T11:10:41.055Z,90.20
2022-10-14T11:13:20.945Z,90.20
2022-10-14T11:15:55.615Z,90.30
2022-10-14T11:18:48.984Z,90.20
2022-10-14T11:21:24.331Z,90.10
2022-10-14T11:24:13.603Z,90.10
2022-10-14T11:27:10.195Z,90.10
2022-10-14T11:30:10.178Z,90.10
2022-10-14T11:32:52.267Z,90.10
2022-10-14T11:41:17.560Z,90.10
2022-10-14T11:43:49.346Z,90.10
2022-10-14T11:46:27.944Z,90.10
2022-10-14T11:48:56.918Z,90.10
2022-10-14T11:51:39.333Z,90.10
2022-10-14T11:54:28.530Z,90.10
2022-10-14T11:57:13.071Z,90.10
2022-10-14T11:59:59.903Z,90.10
2022-10-14T12:02:45.282Z,90.00
2022-10-14T12:05:35.307Z,90.00
2022-10-14T12:08:27.026Z,90.00
2022-10-14T12:11:01.134Z,90.00
2022-10-14T12:13:47.437Z,90.00
2022-10-14T12:16:17.658Z,90.00
2022-10-14T12:18:49.694Z,90.00
2022-10-14T12:21:24.456Z,90.00
2022-10-14T12:24:15.046Z,89.90
2022-10-14T12:26:48.091Z,89.70
2022-10-14T12:29:21.430Z,89.70
2022-10-14T12:32:04.814Z,89.70
2022-10-14T12:34:34.983Z,89.60
2022-10-14T12:37:27.324Z,89.60
2022-10-14T12:40:06.758Z,89.50
2022-10-14T12:42:58.072Z,89.60
2022-10-14T12:45:36.717Z,89.50
2022-10-14T12:48:12.770Z,89.50
2022-10-14T12:50:47.383Z,89.40
2022-10-14T12:53:28.334Z,89.30
2022-10-14T12:56:01.265Z,89.20
2022-10-14T12:58:57.332Z,89.20
2022-10-14T13:01:24.535Z,89.10
2022-10-14T13:04:07.960Z,89.20
2022-10-14T13:06:44.148Z,89.10
2022-10-14T13:09:16.668Z,89.20
2022-10-14T13:11:44.526Z,89.10
2022-10-14T13:14:32.550Z,89.00
2022-10-14T13:17:01.280Z,88.80
2022-10-14T13:19:34.380Z,88.80
2022-10-14T13:22:05.340Z,89.00
2022-10-14T13:24:38.894Z,88.70
2022-10-14T13:27:11.047Z,88.60
2022-10-14T13:30:00.686Z,88.70
2022-10-14T13:32:42.736Z,88.80
2022-10-14T13:35:46.531Z,88.90
2022-10-14T13:38:16.644Z,89.10
2022-10-14T13:40:56.853Z,89.10
2022-10-14T13:43:40.556Z,89.40
2022-10-14T13:46:22.027Z,89.40
2022-10-14T13:48:56.279Z,89.40
2022-10-14T13:51:44.965Z,89.30
2022-10-14T13:54:23.072Z,89.30
2022-10-14T14:02:42.341Z,89.20
2022-10-14T14:05:16.042Z,89.00
2022-10-14T14:10:32.352Z,88.90
2022-10-14T14:13:04.600Z,88.70
2022-10-14T14:15:31.444Z,88.60
2022-10-14T14:17:58.421Z,88.60
2022-10-14T14:20:29.135Z,88.70
2022-10-14T14:22:58.578Z,88.80
2022-10-14T14:25:40.273Z,89.00
2022-10-14T14:28:15.407Z,89.20
2022-10-14T14:30:54.835Z,89.50
2022-10-14T14:33:35.866Z,89.50
2022-10-14T14:36:18.196Z,89.40
2022-10-14T14:39:01.400Z,89.30
2022-10-14T14:41:30.911Z,89.40
2022-10-14T14:44:24.570Z,89.50
2022-10-14T14:46:53.868Z,89.50
2022-10-14T14:49:29.899Z,89.50
2022-10-14T14:52:00.066Z,89.40
2022-10-14T14:54:28.896Z,89.20
2022-10-14T14:57:08.618Z,89.10
2022-10-14T14:59:42.243Z,89.10
2022-10-14T15:02:25.386Z,89.00
2022-10-14T15:05:04.040Z,89.00
2022-10-14T15:07:31.386Z,89.00
2022-10-14T15:10:01.536Z,89.00
2022-10-14T15:12:41.900Z,89.00
2022-10-14T15:15:31.026Z,89.00
2022-10-14T15:18:24.648Z,89.00
2022-10-14T15:20:52.316Z,88.90
2022-10-14T15:23:49.003Z,89.00
2022-10-14T15:26:23.376Z,88.90
2022-10-14T15:29:24.943Z,89.00
2022-10-14T15:32:17.632Z,89.00
2022-10-14T15:34:44.470Z,88.90
2022-10-14T15:37:13.411Z,89.00
2022-10-14T15:39:40.577Z,88.80
2022-10-14T15:42:13.522Z,88.80
2022-10-14T15:44:40.444Z,88.70
2022-10-14T15:47:20.856Z,88.80
2022-10-14T15:49:48.542Z,88.80
2022-10-14T15:52:19.365Z,88.80
2022-10-14T15:54:49.389Z,88.80
2022-10-14T15:57:16.929Z,88.80
2022-10-14T15:59:47.814Z,88.90
2022-10-14T16:02:27.542Z,88.80
2022-10-14T16:07:41.859Z,88.80
2022-10-14T16:10:13.010Z,88.80
2022-10-14T16:12:40.288Z,88.90
2022-10-14T16:15:21.781Z,88.90
2022-10-14T16:17:52.014Z,88.90
2022-10-14T16:20:20.468Z,89.00
2022-10-14T16:22:47.727Z,89.00
2022-10-14T16:25:30.974Z,89.00
2022-10-14T16:27:58.610Z,88.90
2022-10-14T16:30:27.148Z,89.00
2022-10-14T16:32:54.883Z,89.00
2022-10-14T16:35:21.765Z,88.90
2022-10-14T16:37:48.991Z,88.90
2022-10-14T16:40:15.883Z,88.90
2022-10-14T16:42:42.845Z,88.90
2022-10-14T16:45:10.087Z,88.90
2022-10-14T16:47:37.851Z,88.90
2022-10-14T16:50:05.513Z,89.00
2022-10-14T16:52:53.737Z,89.00
2022-10-14T16:55:22.040Z,88.90
2022-10-14T16:57:49.326Z,89.10
2022-10-14T17:02:45.411Z,89.20
2022-10-14T17:05:13.065Z,89.20
2022-10-14T17:07:40.487Z,89.10
2022-10-14T17:10:07.766Z,89.10
2022-10-14T17:12:34.701Z,89.20
2022-10-14T17:15:01.661Z,89.20
2022-10-14T17:17:28.580Z,89.10
2022-10-14T17:19:55.696Z,89.20
2022-10-14T17:22:23.091Z,89.10
2022-10-14T17:24:50.676Z,89.20
2022-10-14T17:27:19.580Z,89.20
2022-10-14T17:29:47.128Z,89.20
2022-10-14T17:32:13.922Z,89.20
2022-10-14T17:34:40.864Z,89.20
2022-10-14T17:39:35.216Z,89.20
2022-10-14T17:42:01.942Z,89.30
2022-10-14T17:44:28.847Z,89.30
2022-10-14T17:46:57.003Z,89.30
2022-10-14T17:49:23.807Z,89.30
2022-10-14T17:51:50.505Z,89.30
2022-10-14T17:54:17.504Z,89.40
2022-10-14T17:56:44.450Z,89.40
2022-10-14T17:59:13.874Z,89.50
2022-10-14T18:02:01.499Z,89.50
2022-10-14T18:04:27.977Z,89.50
2022-10-14T18:06:54.837Z,89.50
2022-10-14T18:09:21.875Z,89.50
2022-10-14T18:14:41.030Z,89.60
2022-10-14T18:17:10.777Z,89.60
2022-10-14T18:19:38.960Z,89.60
2022-10-14T18:22:07.738Z,89.60
2022-10-14T18:24:38.474Z,89.70
2022-10-14T18:27:06.066Z,89.70
2022-10-14T18:29:32.963Z,89.80
2022-10-14T18:31:59.794Z,89.70
2022-10-14T18:34:27.679Z,89.70
2022-10-14T18:36:54.644Z,89.70
2022-10-14T18:39:21.544Z,89.80
2022-10-14T18:41:48.422Z,89.70
2022-10-14T18:44:15.866Z,89.70
2022-10-14T18:46:42.774Z,89.70
2022-10-14T18:49:11.489Z,89.70
2022-10-14T18:51:40.320Z,89.70
2022-10-14T18:54:12.328Z,89.70
2022-10-14T18:56:39.417Z,90.20
2022-10-14T18:59:15.654Z,89.70
2022-10-14T19:01:43.976Z,89.60
2022-10-14T19:04:14.214Z,89.80
2022-10-14T19:06:41.377Z,89.80
2022-10-14T19:09:12.405Z,89.90
2022-10-14T19:11:39.365Z,89.80
2022-10-14T19:14:06.482Z,89.90
2022-10-14T19:16:36.546Z,89.80
2022-10-14T19:19:14.232Z,89.80
2022-10-14T19:21:45.108Z,89.70
2022-10-14T19:24:13.276Z,89.80
2022-10-14T19:26:44.602Z,89.80
2022-10-14T19:29:14.285Z,89.70
2022-10-14T19:31:43.600Z,89.70
2022-10-14T19:34:14.469Z,89.70
2022-10-14T19:36:42.941Z,89.70
2022-10-14T19:39:13.123Z,89.70
2022-10-14T19:41:43.274Z,89.70
2022-10-14T19:44:11.771Z,89.80
2022-10-14T19:46:39.225Z,89.80
2022-10-14T19:49:06.089Z,89.90
2022-10-14T19:51:34.711Z,89.80
2022-10-14T19:54:02.813Z,89.80
2022-10-14T19:56:31.423Z,90.00
2022-10-14T19:58:59.057Z,89.90
2022-10-14T20:01:29.662Z,89.90
2022-10-14T20:03:57.270Z,89.90
2022-10-14T20:06:24.636Z,90.00
2022-10-14T20:08:51.566Z,90.00
2022-10-14T20:11:21.185Z,90.00
2022-10-14T20:13:48.778Z,90.00
2022-10-14T20:16:15.946Z,90.00
2022-10-14T20:18:45.967Z,90.00
2022-10-14T20:21:15.159Z,90.00
2022-10-14T20:23:42.989Z,90.00
2022-10-14T20:26:19.650Z,90.00
2022-10-14T20:28:47.143Z,90.00
2022-10-14T20:31:18.851Z,90.00
2022-10-14T20:33:46.688Z,90.00
2022-10-14T20:36:14.441Z,90.00
2022-10-14T20:38:41.788Z,90.00
2022-10-14T20:41:13.382Z,90.10
2022-10-14T20:43:41.401Z,90.20
2022-10-14T20:46:08.665Z,90.20
2022-10-14T20:48:37.415Z,90.10
2022-10-14T20:51:07.019Z,90.10
2022-10-14T20:53:34.152Z,90.10
2022-10-14T20:56:03.029Z,90.10
2022-10-14T20:58:29.835Z,90.00
2022-10-14T21:01:16.373Z,90.00
2022-10-14T21:03:45.668Z,90.10
2022-10-14T21:06:15.443Z,90.10
2022-10-14T21:08:42.921Z,90.20
2022-10-14T21:11:14.059Z,90.10
2022-10-14T21:13:47.917Z,90.10
2022-10-14T21:16:32.043Z,90.20
2022-10-14T21:19:02.775Z,90.20
2022-10-14T21:21:33.975Z,90.20
2022-10-14T21:24:00.862Z,90.20
2022-10-14T21:26:29.523Z,90.10
2022-10-14T21:28:56.735Z,90.10
2022-10-14T21:31:23.730Z,90.10
2022-10-14T21:34:04.116Z,90.10
2022-10-14T21:36:33.447Z,90.10
2022-10-14T21:39:03.970Z,90.10
2022-10-14T21:41:31.476Z,90.10
2022-10-14T21:43:59.404Z,90.10
2022-10-14T21:46:27.434Z,90.10
2022-10-14T21:48:59.834Z,90.20
2022-10-14T21:51:29.286Z,90.50
2022-10-14T21:53:57.212Z,90.20
2022-10-14T21:56:25.470Z,90.20
2022-10-14T21:58:52.928Z,90.20
2022-10-14T22:01:22.335Z,90.20
2022-10-14T22:04:06.476Z,90.20
2022-10-14T22:06:35.702Z,90.30
2022-10-14T22:09:05.674Z,90.20
2022-10-14T22:11:36.739Z,90.20
2022-10-14T22:14:05.915Z,90.30
2022-10-14T22:16:33.020Z,90.30
2022-10-14T22:19:01.778Z,90.20
2022-10-14T22:21:31.350Z,90.20
2022-10-14T22:23:58.890Z,90.20
2022-10-14T22:26:27.275Z,90.20
2022-10-14T22:28:58.825Z,90.30
2022-10-14T22:31:26.002Z,90.40
2022-10-14T22:33:52.998Z,90.40
2022-10-14T22:36:23.864Z,90.30
2022-10-14T22:38:53.866Z,90.30
2022-10-14T22:41:22.818Z,90.30
2022-10-14T22:43:52.206Z,90.30
2022-10-14T22:46:21.086Z,90.30
2022-10-14T22:48:49.723Z,90.40
2022-10-14T22:51:19.143Z,90.40
2022-10-14T22:53:47.113Z,90.40
2022-10-14T22:56:17.842Z,90.40
2022-10-14T22:58:44.897Z,90.40
2022-10-14T23:01:15.118Z,90.40
2022-10-14T23:03:43.111Z,90.40
2022-10-14T23:06:12.829Z,90.40
2022-10-14T23:08:43.458Z,90.40
2022-10-14T23:11:14.529Z,90.40
2022-10-14T23:13:42.371Z,90.40
2022-10-14T23:16:12.931Z,90.40
2022-10-14T23:21:08.967Z,90.50
2022-10-14T23:23:36.325Z,90.50
2022-10-14T23:26:03.724Z,90.50
2022-10-14T23:28:30.825Z,90.50
2022-10-14T23:30:58.238Z,90.50
2022-10-14T23:33:25.220Z,90.50
2022-10-14T23:35:52.066Z,90.50
2022-10-14T23:38:18.929Z,90.50
2022-10-14T23:40:45.683Z,90.50
2022-10-14T23:43:12.493Z,90.40
2022-10-14T23:45:39.521Z,90.50
2022-10-14T23:48:06.968Z,90.50
2022-10-14T23:50:33.630Z,90.50
2022-10-14T23:53:00.497Z,90.50
2022-10-14T23:55:27.313Z,90.50
2022-10-14T23:57:54.050Z,90.50
